sensor_id;sensor_type;location;lat;lon;timestamp;pressure;altitude;pressure_sealevel;temperature;humidity
13013;BME280;22580;57.670;12.006;2023-04-27T00:00:06;100699.50;;;14.88;38.90
13013;BME280;22580;57.670;12.006;2023-04-27T00:02:36;100676.81;;;14.81;39.38
13013;BME280;22580;57.670;12.006;2023-04-27T00:05:04;100698.47;;;14.70;40.27
13013;BME280;22580;57.670;12.006;2023-04-27T00:07:31;100702.38;;;15.16;39.63
13013;BME280;22580;57.670;12.006;2023-04-27T00:10:04;100686.00;;;14.79;40.02
13013;BME280;22580;57.670;12.006;2023-04-27T00:12:31;100672.03;;;15.04;39.91
13013;BME280;22580;57.670;12.006;2023-04-27T00:14:58;100702.94;;;15.09;39.76
13013;BME280;22580;57.670;12.006;2023-04-27T00:17:25;100683.50;;;14.96;39.85
13013;BME280;22580;57.670;12.006;2023-04-27T00:19:53;100697.38;;;14.21;40.66
13013;BME280;22580;57.670;12.006;2023-04-27T00:22:20;100696.69;;;13.98;40.96
13013;BME280;22580;57.670;12.006;2023-04-27T00:24:47;100662.66;;;14.69;39.66
13013;BME280;22580;57.670;12.006;2023-04-27T00:27:14;100705.75;;;14.49;40.01
13013;BME280;22580;57.670;12.006;2023-04-27T00:29:41;100700.59;;;14.76;39.48
13013;BME280;22580;57.670;12.006;2023-04-27T00:32:08;100669.59;;;14.82;38.88
13013;BME280;22580;57.670;12.006;2023-04-27T00:34:35;100693.84;;;14.91;38.79
13013;BME280;22580;57.670;12.006;2023-04-27T00:37:04;100704.13;;;14.76;39.26
13013;BME280;22580;57.670;12.006;2023-04-27T00:39:33;100701.88;;;14.72;39.54
13013;BME280;22580;57.670;12.006;2023-04-27T00:42:00;100709.72;;;14.94;38.58
13013;BME280;22580;57.670;12.006;2023-04-27T00:44:27;100699.84;;;14.34;39.61
13013;BME280;22580;57.670;12.006;2023-04-27T00:46:54;100691.75;;;14.55;39.33
13013;BME280;22580;57.670;12.006;2023-04-27T00:49:22;100689.38;;;14.61;38.99
13013;BME280;22580;57.670;12.006;2023-04-27T00:51:49;100705.19;;;15.04;38.37
13013;BME280;22580;57.670;12.006;2023-04-27T00:54:19;100707.31;;;15.01;38.36
13013;BME280;22580;57.670;12.006;2023-04-27T00:56:47;100714.75;;;14.17;39.65
13013;BME280;22580;57.670;12.006;2023-04-27T00:59:15;100708.97;;;14.42;38.88
13013;BME280;22580;57.670;12.006;2023-04-27T01:01:42;100719.34;;;14.47;39.13
13013;BME280;22580;57.670;12.006;2023-04-27T01:04:09;100708.53;;;14.17;39.54
13013;BME280;22580;57.670;12.006;2023-04-27T01:06:36;100706.91;;;14.56;38.63
13013;BME280;22580;57.670;12.006;2023-04-27T01:09:03;100708.91;;;14.54;38.87
13013;BME280;22580;57.670;12.006;2023-04-27T01:11:32;100718.22;;;14.50;38.98
13013;BME280;22580;57.670;12.006;2023-04-27T01:14:02;100713.47;;;14.63;38.97
13013;BME280;22580;57.670;12.006;2023-04-27T01:16:29;100704.31;;;14.45;39.40
13013;BME280;22580;57.670;12.006;2023-04-27T01:18:58;100701.91;;;14.91;38.34
13013;BME280;22580;57.670;12.006;2023-04-27T01:21:25;100716.16;;;15.22;38.39
13013;BME280;22580;57.670;12.006;2023-04-27T01:23:54;100710.91;;;14.40;39.54
13013;BME280;22580;57.670;12.006;2023-04-27T01:26:21;100701.53;;;14.04;40.13
13013;BME280;22580;57.670;12.006;2023-04-27T01:28:48;100712.84;;;14.08;39.75
13013;BME280;22580;57.670;12.006;2023-04-27T01:31:15;100707.31;;;14.30;40.00
13013;BME280;22580;57.670;12.006;2023-04-27T01:33:42;100710.06;;;14.40;39.95
13013;BME280;22580;57.670;12.006;2023-04-27T01:36:08;100663.97;;;14.45;39.27
13013;BME280;22580;57.670;12.006;2023-04-27T01:38:36;100690.19;;;14.52;39.33
13013;BME280;22580;57.670;12.006;2023-04-27T01:41:04;100712.09;;;14.88;39.23
13013;BME280;22580;57.670;12.006;2023-04-27T01:43:34;100702.81;;;14.31;39.39
13013;BME280;22580;57.670;12.006;2023-04-27T01:46:05;100693.06;;;14.60;39.18
13013;BME280;22580;57.670;12.006;2023-04-27T01:48:32;100711.28;;;14.47;39.44
13013;BME280;22580;57.670;12.006;2023-04-27T01:50:59;100707.34;;;14.09;40.31
13013;BME280;22580;57.670;12.006;2023-04-27T01:53:26;100708.66;;;14.15;40.51
13013;BME280;22580;57.670;12.006;2023-04-27T01:55:53;100693.78;;;14.11;40.19
13013;BME280;22580;57.670;12.006;2023-04-27T01:58:22;100686.84;;;14.08;40.44
13013;BME280;22580;57.670;12.006;2023-04-27T02:00:48;100694.19;;;14.37;40.18
13013;BME280;22580;57.670;12.006;2023-04-27T02:03:15;100682.91;;;14.83;39.31
13013;BME280;22580;57.670;12.006;2023-04-27T02:05:42;100702.94;;;15.09;39.25
13013;BME280;22580;57.670;12.006;2023-04-27T02:08:09;100698.63;;;14.78;39.20
13013;BME280;22580;57.670;12.006;2023-04-27T02:10:36;100706.19;;;14.54;39.38
13013;BME280;22580;57.670;12.006;2023-04-27T02:13:03;100701.13;;;14.60;39.78
13013;BME280;22580;57.670;12.006;2023-04-27T02:15:31;100698.34;;;14.81;38.90
13013;BME280;22580;57.670;12.006;2023-04-27T02:17:59;100709.09;;;14.71;38.77
13013;BME280;22580;57.670;12.006;2023-04-27T02:20:29;100700.16;;;13.89;39.53
13013;BME280;22580;57.670;12.006;2023-04-27T02:22:56;100707.78;;;14.56;39.58
13013;BME280;22580;57.670;12.006;2023-04-27T02:25:23;100706.41;;;14.41;39.33
13013;BME280;22580;57.670;12.006;2023-04-27T02:27:50;100702.94;;;14.29;39.21
13013;BME280;22580;57.670;12.006;2023-04-27T02:30:17;100705.50;;;14.10;39.95
13013;BME280;22580;57.670;12.006;2023-04-27T02:32:47;100696.31;;;13.82;40.17
13013;BME280;22580;57.670;12.006;2023-04-27T02:35:13;100698.47;;;14.70;39.03
13013;BME280;22580;57.670;12.006;2023-04-27T02:37:40;100668.91;;;14.89;38.31
13013;BME280;22580;57.670;12.006;2023-04-27T02:40:08;100709.03;;;15.02;37.41
13013;BME280;22580;57.670;12.006;2023-04-27T02:42:35;100680.94;;;14.85;37.25
13013;BME280;22580;57.670;12.006;2023-04-27T02:45:05;100714.75;;;14.68;37.58
13013;BME280;22580;57.670;12.006;2023-04-27T02:47:32;100716.47;;;14.69;37.65
13013;BME280;22580;57.670;12.006;2023-04-27T02:50:08;100685.34;;;14.46;38.05
13013;BME280;22580;57.670;12.006;2023-04-27T02:52:35;100717.44;;;14.68;38.73
13013;BME280;22580;57.670;12.006;2023-04-27T02:55:02;100710.81;;;14.72;38.87
13013;BME280;22580;57.670;12.006;2023-04-27T02:57:29;100713.78;;;14.79;38.67
13013;BME280;22580;57.670;12.006;2023-04-27T02:59:56;100715.38;;;14.91;38.83
13013;BME280;22580;57.670;12.006;2023-04-27T03:02:23;100711.63;;;15.23;38.93
13013;BME280;22580;57.670;12.006;2023-04-27T03:04:51;100704.78;;;15.09;39.50
13013;BME280;22580;57.670;12.006;2023-04-27T03:07:21;100698.88;;;15.54;39.01
13013;BME280;22580;57.670;12.006;2023-04-27T03:09:48;100715.72;;;16.04;37.65
13013;BME280;22580;57.670;12.006;2023-04-27T03:12:15;100692.66;;;14.74;39.69
13013;BME280;22580;57.670;12.006;2023-04-27T03:14:42;100714.66;;;14.89;39.71
13013;BME280;22580;57.670;12.006;2023-04-27T03:17:08;100712.88;;;15.19;39.87
13013;BME280;22580;57.670;12.006;2023-04-27T03:19:36;100717.97;;;15.12;38.90
13013;BME280;22580;57.670;12.006;2023-04-27T03:22:02;100711.72;;;15.12;38.86
13013;BME280;22580;57.670;12.006;2023-04-27T03:24:31;100711.06;;;15.67;38.36
13013;BME280;22580;57.670;12.006;2023-04-27T03:26:57;100703.13;;;15.27;38.37
13013;BME280;22580;57.670;12.006;2023-04-27T03:29:24;100720.03;;;14.89;39.33
13013;BME280;22580;57.670;12.006;2023-04-27T03:31:51;100709.06;;;15.31;39.23
13013;BME280;22580;57.670;12.006;2023-04-27T03:34:18;100724.31;;;15.01;39.42
13013;BME280;22580;57.670;12.006;2023-04-27T03:36:46;100719.34;;;14.97;39.86
13013;BME280;22580;57.670;12.006;2023-04-27T03:39:13;100731.53;;;15.01;39.18
13013;BME280;22580;57.670;12.006;2023-04-27T03:41:41;100715.03;;;14.75;39.48
13013;BME280;22580;57.670;12.006;2023-04-27T03:44:08;100726.28;;;14.90;39.41
13013;BME280;22580;57.670;12.006;2023-04-27T03:46:35;100720.25;;;15.17;39.69
13013;BME280;22580;57.670;12.006;2023-04-27T03:49:02;100731.06;;;15.46;39.54
13013;BME280;22580;57.670;12.006;2023-04-27T03:51:29;100733.31;;;15.31;38.25
13013;BME280;22580;57.670;12.006;2023-04-27T03:53:58;100714.72;;;15.18;37.91
13013;BME280;22580;57.670;12.006;2023-04-27T03:56:25;100731.88;;;15.17;38.33
13013;BME280;22580;57.670;12.006;2023-04-27T03:58:54;100731.63;;;15.49;38.22
13013;BME280;22580;57.670;12.006;2023-04-27T04:01:20;100738.31;;;15.74;38.32
13013;BME280;22580;57.670;12.006;2023-04-27T04:03:49;100736.56;;;15.34;38.25
13013;BME280;22580;57.670;12.006;2023-04-27T04:06:16;100737.19;;;15.77;37.96
13013;BME280;22580;57.670;12.006;2023-04-27T04:08:43;100714.31;;;15.32;38.11
13013;BME280;22580;57.670;12.006;2023-04-27T04:11:10;100726.44;;;15.57;38.20
13013;BME280;22580;57.670;12.006;2023-04-27T04:13:36;100722.00;;;15.76;38.01
13013;BME280;22580;57.670;12.006;2023-04-27T04:16:07;100741.72;;;15.76;37.62
13013;BME280;22580;57.670;12.006;2023-04-27T04:18:35;100739.84;;;15.96;38.01
13013;BME280;22580;57.670;12.006;2023-04-27T04:21:02;100734.03;;;15.33;38.71
13013;BME280;22580;57.670;12.006;2023-04-27T04:23:29;100746.00;;;15.59;38.67
13013;BME280;22580;57.670;12.006;2023-04-27T04:25:57;100752.53;;;15.57;38.00
13013;BME280;22580;57.670;12.006;2023-04-27T04:28:24;100737.59;;;16.01;37.34
13013;BME280;22580;57.670;12.006;2023-04-27T04:30:51;100741.00;;;15.64;37.63
13013;BME280;22580;57.670;12.006;2023-04-27T04:33:19;100735.19;;;15.50;38.28
13013;BME280;22580;57.670;12.006;2023-04-27T04:35:46;100706.25;;;14.63;38.61
13013;BME280;22580;57.670;12.006;2023-04-27T04:38:13;100728.13;;;15.58;38.19
13013;BME280;22580;57.670;12.006;2023-04-27T04:40:40;100747.66;;;15.70;37.19
13013;BME280;22580;57.670;12.006;2023-04-27T04:43:07;100757.34;;;15.03;38.17
13013;BME280;22580;57.670;12.006;2023-04-27T04:45:34;100750.34;;;15.99;37.90
13013;BME280;22580;57.670;12.006;2023-04-27T04:48:01;100755.91;;;15.68;37.00
13013;BME280;22580;57.670;12.006;2023-04-27T04:50:30;100751.63;;;16.14;36.45
13013;BME280;22580;57.670;12.006;2023-04-27T04:52:57;100758.44;;;15.99;36.59
13013;BME280;22580;57.670;12.006;2023-04-27T04:55:25;100754.47;;;16.03;36.60
13013;BME280;22580;57.670;12.006;2023-04-27T04:57:54;100754.94;;;15.10;37.98
13013;BME280;22580;57.670;12.006;2023-04-27T05:00:21;100767.28;;;15.13;38.28
13013;BME280;22580;57.670;12.006;2023-04-27T05:02:48;100780.88;;;15.80;36.96
13013;BME280;22580;57.670;12.006;2023-04-27T05:05:15;100765.50;;;14.31;39.05
13013;BME280;22580;57.670;12.006;2023-04-27T05:07:43;100763.66;;;14.32;39.67
13013;BME280;22580;57.670;12.006;2023-04-27T05:10:10;100773.56;;;14.83;39.58
13013;BME280;22580;57.670;12.006;2023-04-27T05:12:37;100778.50;;;14.77;39.29
13013;BME280;22580;57.670;12.006;2023-04-27T05:15:05;100767.16;;;14.74;39.71
13013;BME280;22580;57.670;12.006;2023-04-27T05:17:33;100760.38;;;15.20;38.40
13013;BME280;22580;57.670;12.006;2023-04-27T05:20:00;100727.91;;;14.62;39.27
13013;BME280;22580;57.670;12.006;2023-04-27T05:22:26;100786.56;;;14.26;39.27
13013;BME280;22580;57.670;12.006;2023-04-27T05:24:56;100752.91;;;14.11;39.68
13013;BME280;22580;57.670;12.006;2023-04-27T05:27:23;100776.38;;;15.21;38.07
13013;BME280;22580;57.670;12.006;2023-04-27T05:29:50;100771.53;;;14.75;38.88
13013;BME280;22580;57.670;12.006;2023-04-27T05:32:17;100770.28;;;14.69;39.06
13013;BME280;22580;57.670;12.006;2023-04-27T05:34:44;100769.59;;;14.87;38.67
13013;BME280;22580;57.670;12.006;2023-04-27T05:37:11;100768.38;;;14.60;38.68
13013;BME280;22580;57.670;12.006;2023-04-27T05:39:38;100774.22;;;14.75;39.05
13013;BME280;22580;57.670;12.006;2023-04-27T05:42:06;100779.09;;;15.31;38.26
13013;BME280;22580;57.670;12.006;2023-04-27T05:44:33;100777.03;;;15.04;38.17
13013;BME280;22580;57.670;12.006;2023-04-27T05:47:00;100792.94;;;14.46;38.58
13013;BME280;22580;57.670;12.006;2023-04-27T05:49:27;100780.78;;;14.31;38.29
13013;BME280;22580;57.670;12.006;2023-04-27T05:51:54;100786.59;;;14.87;37.40
13013;BME280;22580;57.670;12.006;2023-04-27T05:54:23;100732.66;;;14.28;38.49
13013;BME280;22580;57.670;12.006;2023-04-27T05:56:50;100785.19;;;15.33;37.54
13013;BME280;22580;57.670;12.006;2023-04-27T05:59:18;100806.63;;;14.64;38.30
13013;BME280;22580;57.670;12.006;2023-04-27T06:01:46;100773.84;;;14.28;38.18
13013;BME280;22580;57.670;12.006;2023-04-27T06:04:12;100796.00;;;14.21;39.25
13013;BME280;22580;57.670;12.006;2023-04-27T06:06:40;100778.56;;;14.97;37.80
13013;BME280;22580;57.670;12.006;2023-04-27T06:09:06;100789.84;;;15.21;37.54
13013;BME280;22580;57.670;12.006;2023-04-27T06:11:33;100792.25;;;14.84;38.32
13013;BME280;22580;57.670;12.006;2023-04-27T06:14:00;100795.09;;;14.52;38.62
13013;BME280;22580;57.670;12.006;2023-04-27T06:16:28;100790.16;;;15.28;37.64
13013;BME280;22580;57.670;12.006;2023-04-27T06:18:55;100781.63;;;14.73;38.35
13013;BME280;22580;57.670;12.006;2023-04-27T06:21:22;100763.22;;;14.48;38.95
13013;BME280;22580;57.670;12.006;2023-04-27T06:23:49;100808.31;;;14.95;38.32
13013;BME280;22580;57.670;12.006;2023-04-27T06:26:16;100795.41;;;14.89;38.82
13013;BME280;22580;57.670;12.006;2023-04-27T06:28:43;100788.38;;;15.07;38.03
13013;BME280;22580;57.670;12.006;2023-04-27T06:31:11;100805.78;;;14.22;38.75
13013;BME280;22580;57.670;12.006;2023-04-27T06:33:39;100794.22;;;14.72;38.53
13013;BME280;22580;57.670;12.006;2023-04-27T06:36:07;100804.34;;;15.39;37.36
13013;BME280;22580;57.670;12.006;2023-04-27T06:38:34;100798.06;;;15.20;37.88
13013;BME280;22580;57.670;12.006;2023-04-27T06:41:01;100783.22;;;15.35;36.94
13013;BME280;22580;57.670;12.006;2023-04-27T06:43:28;100803.22;;;15.42;37.29
13013;BME280;22580;57.670;12.006;2023-04-27T06:45:55;100807.53;;;15.93;36.43
13013;BME280;22580;57.670;12.006;2023-04-27T06:48:22;100803.44;;;15.20;37.47
13013;BME280;22580;57.670;12.006;2023-04-27T06:50:51;100790.38;;;15.94;36.88
13013;BME280;22580;57.670;12.006;2023-04-27T06:53:18;100801.97;;;15.06;37.85
13013;BME280;22580;57.670;12.006;2023-04-27T06:55:45;100822.59;;;14.56;39.64
13013;BME280;22580;57.670;12.006;2023-04-27T06:58:12;100818.25;;;14.43;39.55
13013;BME280;22580;57.670;12.006;2023-04-27T07:00:39;100814.28;;;15.39;38.00
13013;BME280;22580;57.670;12.006;2023-04-27T07:03:06;100820.00;;;15.74;37.76
13013;BME280;22580;57.670;12.006;2023-04-27T07:05:33;100842.38;;;15.56;37.54
13013;BME280;22580;57.670;12.006;2023-04-27T07:08:01;100821.28;;;15.70;37.91
13013;BME280;22580;57.670;12.006;2023-04-27T07:10:28;100819.03;;;15.76;38.15
13013;BME280;22580;57.670;12.006;2023-04-27T07:12:55;100828.81;;;15.57;38.31
13013;BME280;22580;57.670;12.006;2023-04-27T07:15:22;100819.16;;;16.22;37.51
13013;BME280;22580;57.670;12.006;2023-04-27T07:17:50;100816.34;;;16.04;37.07
13013;BME280;22580;57.670;12.006;2023-04-27T07:20:18;100814.47;;;16.34;37.20
13013;BME280;22580;57.670;12.006;2023-04-27T07:22:45;100822.84;;;16.97;35.62
13013;BME280;22580;57.670;12.006;2023-04-27T07:25:14;100829.25;;;16.01;35.38
13013;BME280;22580;57.670;12.006;2023-04-27T07:27:41;100813.47;;;16.35;35.27
13013;BME280;22580;57.670;12.006;2023-04-27T07:30:08;100845.84;;;15.96;36.16
13013;BME280;22580;57.670;12.006;2023-04-27T07:32:39;100813.13;;;14.92;37.31
13013;BME280;22580;57.670;12.006;2023-04-27T07:35:06;100835.44;;;14.83;36.88
13013;BME280;22580;57.670;12.006;2023-04-27T07:37:33;100844.91;;;14.77;37.18
13013;BME280;22580;57.670;12.006;2023-04-27T07:40:02;100841.50;;;15.05;36.93
13013;BME280;22580;57.670;12.006;2023-04-27T07:42:37;100850.88;;;15.11;36.18
13013;BME280;22580;57.670;12.006;2023-04-27T07:45:07;100851.69;;;16.01;35.40
13013;BME280;22580;57.670;12.006;2023-04-27T07:47:34;100848.44;;;16.93;33.85
13013;BME280;22580;57.670;12.006;2023-04-27T07:50:00;100858.34;;;16.46;33.70
13013;BME280;22580;57.670;12.006;2023-04-27T07:52:28;100855.75;;;15.67;34.88
13013;BME280;22580;57.670;12.006;2023-04-27T07:54:55;100856.03;;;15.73;34.76
13013;BME280;22580;57.670;12.006;2023-04-27T07:57:22;100863.72;;;15.88;34.44
13013;BME280;22580;57.670;12.006;2023-04-27T07:59:51;100867.13;;;15.90;34.78
13013;BME280;22580;57.670;12.006;2023-04-27T08:02:18;100861.41;;;16.51;34.32
13013;BME280;22580;57.670;12.006;2023-04-27T08:04:45;100875.25;;;16.09;34.22
13013;BME280;22580;57.670;12.006;2023-04-27T08:07:12;100876.72;;;14.93;35.58
13013;BME280;22580;57.670;12.006;2023-04-27T08:09:38;100873.13;;;16.22;34.23
13013;BME280;22580;57.670;12.006;2023-04-27T08:12:06;100877.31;;;16.73;33.39
13013;BME280;22580;57.670;12.006;2023-04-27T08:14:33;100896.03;;;15.68;33.74
13013;BME280;22580;57.670;12.006;2023-04-27T08:17:01;100875.88;;;16.88;32.73
13013;BME280;22580;57.670;12.006;2023-04-27T08:19:29;100872.06;;;17.18;32.49
13013;BME280;22580;57.670;12.006;2023-04-27T08:21:56;100879.88;;;16.55;32.92
13013;BME280;22580;57.670;12.006;2023-04-27T08:24:23;100879.03;;;16.55;32.90
13013;BME280;22580;57.670;12.006;2023-04-27T08:26:50;100880.22;;;17.09;32.20
13013;BME280;22580;57.670;12.006;2023-04-27T08:29:16;100865.41;;;17.13;32.06
13013;BME280;22580;57.670;12.006;2023-04-27T08:31:44;100897.53;;;16.40;33.04
13013;BME280;22580;57.670;12.006;2023-04-27T08:34:13;100887.78;;;16.95;32.51
13013;BME280;22580;57.670;12.006;2023-04-27T08:36:40;100873.16;;;16.88;32.08
13013;BME280;22580;57.670;12.006;2023-04-27T08:39:08;100904.09;;;17.13;30.83
13013;BME280;22580;57.670;12.006;2023-04-27T08:41:35;100903.66;;;17.08;31.29
13013;BME280;22580;57.670;12.006;2023-04-27T08:44:07;100902.91;;;16.69;31.96
13013;BME280;22580;57.670;12.006;2023-04-27T08:46:35;100898.28;;;16.98;31.83
13013;BME280;22580;57.670;12.006;2023-04-27T08:49:03;100899.66;;;17.77;31.44
13013;BME280;22580;57.670;12.006;2023-04-27T08:51:32;100897.91;;;17.30;32.14
13013;BME280;22580;57.670;12.006;2023-04-27T08:53:59;100915.53;;;16.11;32.76
13013;BME280;22580;57.670;12.006;2023-04-27T08:56:28;100911.28;;;15.98;32.39
13013;BME280;22580;57.670;12.006;2023-04-27T08:58:57;100905.97;;;16.93;32.20
13013;BME280;22580;57.670;12.006;2023-04-27T09:01:24;100910.03;;;16.41;32.87
13013;BME280;22580;57.670;12.006;2023-04-27T09:03:55;100900.34;;;16.58;32.39
13013;BME280;22580;57.670;12.006;2023-04-27T09:06:28;100911.13;;;16.58;32.51
13013;BME280;22580;57.670;12.006;2023-04-27T09:08:58;100916.63;;;17.04;32.66
13013;BME280;22580;57.670;12.006;2023-04-27T09:11:29;100917.25;;;16.69;33.63
13013;BME280;22580;57.670;12.006;2023-04-27T09:13:58;100944.53;;;16.66;33.20
13013;BME280;22580;57.670;12.006;2023-04-27T09:16:26;100915.13;;;16.73;32.76
13013;BME280;22580;57.670;12.006;2023-04-27T09:18:54;100916.34;;;17.72;32.07
13013;BME280;22580;57.670;12.006;2023-04-27T09:21:22;100925.63;;;16.76;32.15
13013;BME280;22580;57.670;12.006;2023-04-27T09:23:49;100926.50;;;16.28;33.36
13013;BME280;22580;57.670;12.006;2023-04-27T09:26:20;100923.34;;;16.81;33.65
13013;BME280;22580;57.670;12.006;2023-04-27T09:28:50;100927.63;;;17.58;32.70
13013;BME280;22580;57.670;12.006;2023-04-27T09:31:17;100935.13;;;16.90;32.30
13013;BME280;22580;57.670;12.006;2023-04-27T09:33:45;100931.25;;;17.02;32.36
13013;BME280;22580;57.670;12.006;2023-04-27T09:36:13;100931.22;;;17.21;32.30
13013;BME280;22580;57.670;12.006;2023-04-27T09:38:40;100942.09;;;16.92;33.23
13013;BME280;22580;57.670;12.006;2023-04-27T09:41:07;100959.28;;;16.62;33.00
13013;BME280;22580;57.670;12.006;2023-04-27T09:43:36;100932.25;;;17.38;32.31
13013;BME280;22580;57.670;12.006;2023-04-27T09:46:03;100940.13;;;17.59;31.94
13013;BME280;22580;57.670;12.006;2023-04-27T09:48:31;100929.63;;;17.28;32.88
13013;BME280;22580;57.670;12.006;2023-04-27T09:50:58;100935.81;;;18.03;31.95
13013;BME280;22580;57.670;12.006;2023-04-27T09:53:29;100945.09;;;17.63;30.75
13013;BME280;22580;57.670;12.006;2023-04-27T09:56:08;100959.25;;;17.11;30.96
13013;BME280;22580;57.670;12.006;2023-04-27T09:58:59;100947.25;;;17.69;30.86
13013;BME280;22580;57.670;12.006;2023-04-27T10:01:36;100896.88;;;17.04;31.09
13013;BME280;22580;57.670;12.006;2023-04-27T10:04:12;100929.50;;;17.85;31.09
13013;BME280;22580;57.670;12.006;2023-04-27T10:06:57;100955.59;;;17.76;31.00
13013;BME280;22580;57.670;12.006;2023-04-27T10:09:25;100977.50;;;16.70;31.67
13013;BME280;22580;57.670;12.006;2023-04-27T10:11:55;100953.75;;;16.93;31.78
13013;BME280;22580;57.670;12.006;2023-04-27T10:14:23;100970.81;;;17.40;30.95
13013;BME280;22580;57.670;12.006;2023-04-27T10:16:52;100960.50;;;17.53;30.74
13013;BME280;22580;57.670;12.006;2023-04-27T10:19:20;100984.56;;;17.47;30.10
13013;BME280;22580;57.670;12.006;2023-04-27T10:21:51;100968.88;;;17.32;31.22
13013;BME280;22580;57.670;12.006;2023-04-27T10:24:30;100977.31;;;17.00;31.38
13013;BME280;22580;57.670;12.006;2023-04-27T10:27:15;100944.56;;;17.23;31.32
13013;BME280;22580;57.670;12.006;2023-04-27T10:29:51;100969.06;;;17.12;31.12
13013;BME280;22580;57.670;12.006;2023-04-27T10:32:20;100949.25;;;17.58;30.60
13013;BME280;22580;57.670;12.006;2023-04-27T10:34:48;100983.50;;;17.77;30.28
13013;BME280;22580;57.670;12.006;2023-04-27T10:37:17;100976.34;;;16.92;31.25
13013;BME280;22580;57.670;12.006;2023-04-27T10:39:49;100962.13;;;16.51;32.03
13013;BME280;22580;57.670;12.006;2023-04-27T10:42:26;100982.88;;;16.31;33.06
13013;BME280;22580;57.670;12.006;2023-04-27T10:45:00;100990.13;;;16.79;32.35
13013;BME280;22580;57.670;12.006;2023-04-27T10:47:36;100982.28;;;17.05;31.85
13013;BME280;22580;57.670;12.006;2023-04-27T10:50:04;100986.13;;;17.49;31.46
13013;BME280;22580;57.670;12.006;2023-04-27T10:52:31;100992.69;;;17.47;31.12
13013;BME280;22580;57.670;12.006;2023-04-27T10:55:11;100983.16;;;16.96;32.03
13013;BME280;22580;57.670;12.006;2023-04-27T10:57:45;100991.16;;;17.34;31.50
13013;BME280;22580;57.670;12.006;2023-04-27T11:00:14;101003.75;;;16.97;31.76
13013;BME280;22580;57.670;12.006;2023-04-27T11:02:43;100995.94;;;16.94;31.31
13013;BME280;22580;57.670;12.006;2023-04-27T11:05:16;101008.41;;;16.56;31.53
13013;BME280;22580;57.670;12.006;2023-04-27T11:07:44;101001.97;;;16.09;31.61
13013;BME280;22580;57.670;12.006;2023-04-27T11:10:16;100999.22;;;16.97;30.95
13013;BME280;22580;57.670;12.006;2023-04-27T11:12:43;100993.41;;;17.86;32.44
13013;BME280;22580;57.670;12.006;2023-04-27T11:15:11;101003.25;;;18.50;30.22
13013;BME280;22580;57.670;12.006;2023-04-27T11:17:40;100999.16;;;17.63;30.16
13013;BME280;22580;57.670;12.006;2023-04-27T11:20:08;101011.69;;;17.27;30.75
13013;BME280;22580;57.670;12.006;2023-04-27T11:22:43;101014.78;;;17.32;31.00
13013;BME280;22580;57.670;12.006;2023-04-27T11:25:11;101017.97;;;16.99;31.02
13013;BME280;22580;57.670;12.006;2023-04-27T11:27:39;101011.28;;;16.35;31.30
13013;BME280;22580;57.670;12.006;2023-04-27T11:30:18;101017.16;;;16.00;31.51
13013;BME280;22580;57.670;12.006;2023-04-27T11:32:47;101028.59;;;16.33;31.99
13013;BME280;22580;57.670;12.006;2023-04-27T11:35:14;101026.03;;;16.41;31.44
13013;BME280;22580;57.670;12.006;2023-04-27T11:37:42;101041.50;;;16.49;30.27
13013;BME280;22580;57.670;12.006;2023-04-27T11:40:12;101021.41;;;16.91;29.32
13013;BME280;22580;57.670;12.006;2023-04-27T11:42:40;101019.16;;;17.33;29.82
13013;BME280;22580;57.670;12.006;2023-04-27T11:45:11;101030.75;;;17.07;29.48
13013;BME280;22580;57.670;12.006;2023-04-27T11:47:38;101018.53;;;16.45;30.35
13013;BME280;22580;57.670;12.006;2023-04-27T11:50:09;101027.78;;;16.02;30.81
13013;BME280;22580;57.670;12.006;2023-04-27T11:52:37;101034.09;;;16.22;31.14
13013;BME280;22580;57.670;12.006;2023-04-27T11:55:05;101034.75;;;16.83;30.23
13013;BME280;22580;57.670;12.006;2023-04-27T11:57:34;101032.19;;;16.72;30.51
13013;BME280;22580;57.670;12.006;2023-04-27T12:00:03;101052.94;;;17.20;29.92
13013;BME280;22580;57.670;12.006;2023-04-27T12:02:35;101059.63;;;16.96;30.25
13013;BME280;22580;57.670;12.006;2023-04-27T12:05:02;101042.13;;;16.81;30.55
13013;BME280;22580;57.670;12.006;2023-04-27T12:07:31;101053.88;;;17.38;29.60
13013;BME280;22580;57.670;12.006;2023-04-27T12:09:58;101055.22;;;17.05;29.02
13013;BME280;22580;57.670;12.006;2023-04-27T12:12:25;101057.53;;;17.56;29.01
13013;BME280;22580;57.670;12.006;2023-04-27T12:14:52;101081.59;;;16.63;29.42
13013;BME280;22580;57.670;12.006;2023-04-27T12:17:19;101075.13;;;16.94;29.61
13013;BME280;22580;57.670;12.006;2023-04-27T12:19:46;101053.19;;;18.38;28.36
13013;BME280;22580;57.670;12.006;2023-04-27T12:22:13;101062.69;;;17.40;28.41
13013;BME280;22580;57.670;12.006;2023-04-27T12:24:42;101067.44;;;16.90;28.71
13013;BME280;22580;57.670;12.006;2023-04-27T12:27:08;101081.44;;;16.55;27.91
13013;BME280;22580;57.670;12.006;2023-04-27T12:29:36;101079.66;;;16.94;28.09
13013;BME280;22580;57.670;12.006;2023-04-27T12:32:03;101090.03;;;17.18;28.47
13013;BME280;22580;57.670;12.006;2023-04-27T12:34:31;101088.13;;;18.04;27.74
13013;BME280;22580;57.670;12.006;2023-04-27T12:36:58;101085.25;;;17.58;28.43
13013;BME280;22580;57.670;12.006;2023-04-27T12:39:25;101114.50;;;17.26;28.24
13013;BME280;22580;57.670;12.006;2023-04-27T12:41:53;101110.63;;;16.70;29.48
13013;BME280;22580;57.670;12.006;2023-04-27T12:44:20;101078.56;;;17.62;28.52